Time;durP1;ratioP1;P1;durP2;ratioP2;P2;SDS_P1;SDS_P2;PMS_P1;PMS_P2;Temp;Humidity;BMP_temperature;BMP_pressure;BME280_temperature;BME280_humidity;BME280_pressure;Samples;Min_cycle;Max_cycle;Signal;HPM_P1;HPM_P2
2022/11/23 00:01:25;;;;;;;14.07;10.95;;;;;;;8.94;71.33;93394.88;4160044;28;20057;-57
2022/11/23 00:03:27;;;;;;;17.02;10.98;;;;;;;8.95;71.39;93412.19;4160838;28;20049;-57
2022/11/23 00:05:30;;;;;;;15.65;10.77;;;;;;;8.93;71.49;93413.38;4160837;28;20072;-55
2022/11/23 00:07:31;;;;;;;13.77;10.93;;;;;;;8.96;71.57;93411.19;4147793;28;20049;-59
2022/11/23 00:09:33;;;;;;;21.17;11.70;;;;;;;8.95;71.58;93403.53;4162929;28;20049;-57
2022/11/23 00:11:35;;;;;;;17.65;11.93;;;;;;;8.94;71.27;93409.75;4169954;28;20079;-55
2022/11/23 00:13:39;;;;;;;15.93;11.00;;;;;;;8.91;71.05;93410.91;4162595;28;20466;-56
2022/11/23 00:15:41;;;;;;;16.92;11.43;;;;;;;8.90;71.57;93404.06;4160641;28;20057;-55
2022/11/23 00:17:42;;;;;;;13.73;9.60;;;;;;;8.83;71.37;93395.34;4162680;28;20107;-53
2022/11/23 00:19:44;;;;;;;15.35;8.98;;;;;;;8.79;70.56;93399.28;4163959;28;20417;-55
2022/11/23 00:21:46;;;;;;;14.43;9.13;;;;;;;8.78;71.42;93387.25;4156611;28;20053;-55
2022/11/23 00:23:48;;;;;;;14.95;8.63;;;;;;;8.75;71.73;93390.19;4160597;28;20096;-55
2022/11/23 00:25:49;;;;;;;12.40;8.05;;;;;;;8.76;71.96;93386.63;4163308;28;20045;-54
2022/11/23 00:28:00;;;;;;;12.05;8.52;;;;;;;8.82;72.17;93391.13;4162565;28;20060;-56
2022/11/23 00:30:03;;;;;;;10.23;7.97;;;;;;;8.85;72.22;93388.13;4163858;28;20049;-57
2022/11/23 00:32:05;;;;;;;11.57;8.00;;;;;;;8.83;72.09;93379.66;4162464;28;20072;-57
2022/11/23 00:34:06;;;;;;;13.77;8.02;;;;;;;8.84;71.53;93399.59;4162714;28;20077;-57
2022/11/23 00:36:13;;;;;;;10.05;7.13;;;;;;;8.89;71.68;93402.44;4162822;28;20057;-57
2022/11/23 00:38:21;;;;;;;10.10;7.38;;;;;;;8.89;72.32;93401.66;4162087;28;20461;-56
2022/11/23 00:40:22;;;;;;;10.85;8.57;;;;;;;8.88;72.54;93390.38;4161985;28;20085;-58
2022/11/23 00:42:24;;;;;;;11.88;7.88;;;;;;;8.80;73.51;93395.72;4159047;28;20050;-58
2022/11/23 00:44:26;;;;;;;14.13;8.55;;;;;;;8.83;73.00;93397.94;4158512;28;20054;-54
2022/11/23 00:46:27;;;;;;;12.20;8.27;;;;;;;8.86;73.91;93391.53;4171236;28;20049;-55
2022/11/23 00:48:29;;;;;;;11.80;8.13;;;;;;;8.87;73.58;93401.81;4162878;28;20541;-52
2022/11/23 00:50:31;;;;;;;11.82;7.82;;;;;;;8.84;73.87;93386.53;4167661;28;20049;-56
2022/11/23 00:52:33;;;;;;;12.23;8.23;;;;;;;8.82;74.26;93384.09;4167003;28;20115;-55
2022/11/23 00:54:37;;;;;;;12.32;8.43;;;;;;;8.86;74.39;93383.72;4166836;28;20297;-57
2022/11/23 00:56:42;;;;;;;12.15;7.90;;;;;;;8.88;74.71;93379.13;4167821;28;20071;-55
2022/11/23 00:58:49;;;;;;;12.57;7.82;;;;;;;8.93;74.14;93392.47;4167592;28;20487;-56
2022/11/23 01:00:59;;;;;;;11.80;8.88;;;;;;;8.96;73.66;93392.09;4167963;28;20363;-56
2022/11/23 01:03:01;;;;;;;12.27;8.65;;;;;;;8.94;73.61;93371.38;4164483;28;20145;-54
2022/11/23 01:05:03;;;;;;;11.82;7.95;;;;;;;8.97;73.18;93378.84;4165175;28;20046;-56
2022/11/23 01:07:04;;;;;;;11.90;7.63;;;;;;;8.99;73.45;93378.66;4154321;28;20466;-56
2022/11/23 01:09:12;;;;;;;8.60;6.90;;;;;;;8.94;73.25;93379.22;4166740;28;20061;-58
2022/11/23 01:11:13;;;;;;;10.80;7.43;;;;;;;8.95;73.93;93378.22;4162590;28;20119;-56
2022/11/23 01:13:15;;;;;;;9.05;6.85;;;;;;;8.94;73.04;93386.25;4161350;28;20053;-55
2022/11/23 01:15:32;;;;;;;10.25;7.15;;;;;;;8.95;73.53;93388.69;4162091;28;20109;-53
2022/11/23 01:17:33;;;;;;;8.85;7.13;;;;;;;8.94;72.89;93392.25;4162740;28;20127;-56
2022/11/23 01:19:35;;;;;;;9.63;6.90;;;;;;;8.95;72.80;93386.06;4166294;28;20090;-55
2022/11/23 01:21:37;;;;;;;11.43;7.57;;;;;;;8.92;74.07;93365.50;4155930;28;20049;-54
2022/11/23 01:23:40;;;;;;;10.38;7.53;;;;;;;8.85;74.62;93364.63;4169129;28;20060;-59
2022/11/23 01:25:45;;;;;;;12.13;7.32;;;;;;;8.82;74.84;93368.41;4171564;28;20065;-55
2022/11/23 01:27:47;;;;;;;10.50;7.63;;;;;;;8.80;74.88;93377.44;4161049;28;20515;-52
2022/11/23 01:29:55;;;;;;;11.88;6.82;;;;;;;8.45;74.81;93379.72;4161291;28;20540;-57
2022/11/23 01:31:56;;;;;;;9.98;7.93;;;;;;;7.95;77.09;93388.94;4162453;28;20119;-56
2022/11/23 01:34:00;;;;;;;10.68;7.78;;;;;;;7.55;79.17;93399.50;4161207;28;20060;-54
2022/11/23 01:36:12;;;;;;;;;;;;;;;7.56;80.43;93385.47;4174387;28;20454;-57
2022/11/23 01:38:13;;;;;;;10.45;7.55;;;;;;;7.62;80.28;93378.78;4168744;28;19925;-58
2022/11/23 01:40:22;;;;;;;11.27;8.70;;;;;;;7.79;81.11;93369.84;4168205;28;20505;-55
2022/11/23 01:42:39;;;;;;;12.85;8.23;;;;;;;7.94;80.72;93367.28;4177570;28;20315;-58
2022/11/23 01:44:40;;;;;;;12.65;8.80;;;;;;;8.07;80.31;93368.50;4160293;28;20065;-54
2022/11/23 01:46:42;;;;;;;9.73;7.60;;;;;;;8.09;79.56;93388.19;4175480;28;20045;-55
2022/11/23 01:48:54;;;;;;;10.07;7.72;;;;;;;8.14;78.83;93388.47;4166790;28;20045;-54
2022/11/23 01:50:58;;;;;;;10.98;7.60;;;;;;;8.21;78.72;93381.53;4170988;28;20060;-55
2022/11/23 01:53:00;;;;;;;10.50;7.85;;;;;;;8.31;78.71;93372.69;4186533;28;20080;-54
2022/11/23 01:55:01;;;;;;;9.77;7.45;;;;;;;8.29;78.34;93374.66;4175120;28;20132;-57
2022/11/23 01:57:12;;;;;;;9.35;7.38;;;;;;;8.31;79.16;93388.34;4162818;28;20585;-56
2022/11/23 01:59:16;;;;;;;9.90;7.65;;;;;;;8.27;78.22;93397.50;4159305;28;20502;-56
2022/11/23 02:01:17;;;;;;;15.13;8.43;;;;;;;8.24;78.63;93397.84;4160709;28;20054;-55
2022/11/23 02:03:19;;;;;;;12.77;8.65;;;;;;;8.23;79.08;93375.34;4162228;28;20416;-53
2022/11/23 02:05:24;;;;;;;9.48;7.40;;;;;;;8.26;78.99;93360.16;4159184;28;20065;-53
2022/11/23 02:07:27;;;;;;;9.93;7.22;;;;;;;8.34;78.80;93356.66;4146480;28;20057;-53
2022/11/23 02:09:32;;;;;;;11.75;7.45;;;;;;;8.41;78.78;93357.63;4153199;28;20114;-57
2022/11/23 02:11:34;;;;;;;10.40;7.38;;;;;;;8.48;79.14;93353.28;4168512;28;20077;-55
2022/11/23 02:13:36;;;;;;;8.73;6.78;;;;;;;8.48;78.09;93353.28;4160467;28;20042;-55
2022/11/23 02:15:38;;;;;;;9.82;6.68;;;;;;;8.51;78.10;93354.72;4163728;28;20136;-57
2022/11/23 02:17:41;;;;;;;10.20;6.85;;;;;;;8.52;78.30;93341.50;4160406;28;20152;-55
2022/11/23 02:20:02;;;;;;;13.02;7.10;;;;;;;8.54;78.29;93351.75;4161035;28;20123;-56
2022/11/23 02:22:08;;;;;;;8.73;6.68;;;;;;;8.57;78.53;93336.53;4158577;28;20072;-56
2022/11/23 02:24:27;;;;;;;9.80;6.47;;;;;;;8.54;78.73;93344.75;4153725;28;20075;-57
2022/11/23 02:26:31;;;;;;;11.25;8.10;;;;;;;8.57;78.23;93349.59;4161040;28;20054;-56
2022/11/23 02:28:37;;;;;;;9.50;7.32;;;;;;;8.59;78.48;93355.44;4159315;28;20056;-55
2022/11/23 02:30:38;;;;;;;10.38;7.85;;;;;;;8.61;78.15;93358.69;4158245;28;20164;-54
2022/11/23 02:32:40;;;;;;;11.32;7.90;;;;;;;8.48;78.29;93348.06;4157300;28;20134;-54
2022/11/23 02:34:42;;;;;;;11.50;8.15;;;;;;;8.47;79.40;93351.66;4161759;28;20046;-58
2022/11/23 02:36:47;;;;;;;11.52;7.75;;;;;;;8.48;78.89;93337.63;4157806;28;20073;-56
2022/11/23 02:38:48;;;;;;;10.10;7.78;;;;;;;8.52;78.76;93323.25;4158064;28;20046;-58
2022/11/23 02:40:50;;;;;;;11.73;7.85;;;;;;;8.11;78.63;93328.84;4153458;28;20401;-58
2022/11/23 02:42:52;;;;;;;10.30;8.27;;;;;;;7.86;79.25;93323.03;4157715;28;20061;-56
2022/11/23 02:44:53;;;;;;;11.95;8.88;;;;;;;7.72;80.66;93315.97;4168485;28;20055;-56
2022/11/23 02:46:55;;;;;;;11.45;8.68;;;;;;;7.80;80.96;93321.91;4162223;28;20060;-55
2022/11/23 02:48:57;;;;;;;12.95;9.10;;;;;;;7.95;81.07;93316.75;4157249;28;20076;-53
2022/11/23 02:50:58;;;;;;;12.13;9.05;;;;;;;8.07;79.97;93313.72;4167415;28;20045;-55
2022/11/23 02:53:00;;;;;;;12.18;9.57;;;;;;;7.97;79.46;93313.97;4151899;28;20129;-56
2022/11/23 02:55:01;;;;;;;12.65;8.88;;;;;;;7.92;79.35;93316.31;4160898;28;20057;-58
2022/11/23 02:57:04;;;;;;;15.95;10.65;;;;;;;7.89;79.66;93307.00;4164287;28;20175;-58
2022/11/23 02:59:06;;;;;;;13.32;9.90;;;;;;;8.02;79.98;93300.38;4156140;28;20079;-56
2022/11/23 03:01:07;;;;;;;14.02;10.80;;;;;;;8.07;79.82;93304.09;4161891;28;20084;-57
2022/11/23 03:03:09;;;;;;;14.13;10.45;;;;;;;8.16;79.86;93300.41;4164279;28;20053;-56
2022/11/23 03:05:11;;;;;;;13.27;10.40;;;;;;;8.21;79.27;93298.06;4162607;28;20045;-56
2022/11/23 03:07:12;;;;;;;12.52;10.30;;;;;;;8.27;79.40;93304.38;4161218;28;20145;-57
2022/11/23 03:09:14;;;;;;;13.27;10.20;;;;;;;8.32;78.50;93296.00;4150950;28;20062;-57
2022/11/23 03:11:16;;;;;;;13.63;10.68;;;;;;;8.35;78.65;93280.81;4158395;28;20056;-58
2022/11/23 03:13:18;;;;;;;12.88;10.32;;;;;;;8.40;78.95;93283.72;4166708;28;20081;-53
2022/11/23 03:15:19;;;;;;;13.65;10.32;;;;;;;8.42;78.73;93283.53;4165671;28;20412;-53
2022/11/23 03:17:21;;;;;;;14.10;11.02;;;;;;;8.48;78.64;93284.63;4168570;28;20048;-56
2022/11/23 03:19:23;;;;;;;14.57;11.32;;;;;;;8.50;78.35;93282.66;4163581;28;20371;-55
2022/11/23 03:21:25;;;;;;;16.52;11.57;;;;;;;8.52;78.49;93291.91;4159983;28;20437;-54
2022/11/23 03:23:26;;;;;;;14.38;10.77;;;;;;;8.52;78.38;93280.66;4158493;28;20053;-54
2022/11/23 03:25:28;;;;;;;16.05;11.35;;;;;;;8.49;77.51;93271.38;4163803;28;20044;-55
2022/11/23 03:27:32;;;;;;;16.00;11.15;;;;;;;8.48;77.80;93282.81;4167206;28;20041;-55
2022/11/23 03:29:33;;;;;;;16.77;11.57;;;;;;;8.51;77.44;93295.50;4168450;28;20072;-56
2022/11/23 03:31:35;;;;;;;15.40;11.88;;;;;;;8.49;77.20;93284.44;4168976;28;20519;-56
2022/11/23 03:33:37;;;;;;;17.13;10.73;;;;;;;8.38;77.73;93263.97;4168358;28;20133;-57
2022/11/23 03:35:42;;;;;;;13.90;10.98;;;;;;;8.37;77.80;93267.59;4163309;28;20084;-57
2022/11/23 03:37:43;;;;;;;13.45;10.23;;;;;;;8.32;77.68;93273.34;4165026;28;20049;-56
2022/11/23 03:39:45;;;;;;;14.85;11.25;;;;;;;8.33;78.11;93276.78;4157107;28;20508;-58
2022/11/23 03:41:48;;;;;;;15.30;10.93;;;;;;;8.33;77.72;93261.91;4164106;28;20157;-58
2022/11/23 03:43:49;;;;;;;15.35;9.93;;;;;;;8.15;78.21;93254.47;4157683;28;20092;-54
2022/11/23 03:45:51;;;;;;;16.60;10.02;;;;;;;8.19;78.30;93260.09;4155630;28;20157;-56
2022/11/23 03:47:53;;;;;;;14.35;11.02;;;;;;;8.24;78.77;93254.34;4168818;28;20052;-54
2022/11/23 03:49:54;;;;;;;12.82;10.27;;;;;;;8.28;78.48;93256.44;4167798;28;20144;-56
2022/11/23 03:51:56;;;;;;;14.88;11.05;;;;;;;8.31;78.66;93243.03;4172532;28;20494;-57
2022/11/23 03:53:58;;;;;;;12.50;9.65;;;;;;;8.27;78.84;93236.53;4168840;28;20133;-58
2022/11/23 03:55:59;;;;;;;14.48;9.52;;;;;;;8.30;78.56;93237.97;4168723;28;20468;-58
2022/11/23 03:58:01;;;;;;;15.25;9.30;;;;;;;8.33;78.65;93237.63;4161401;28;20449;-58
2022/11/23 04:00:03;;;;;;;15.05;10.10;;;;;;;8.25;78.38;93237.72;4151222;28;20472;-57
2022/11/23 04:02:06;;;;;;;13.43;9.07;;;;;;;8.23;78.36;93244.91;4152962;28;20054;-54
2022/11/23 04:04:08;;;;;;;14.38;9.00;;;;;;;8.27;78.86;93238.34;4174455;28;20521;-54
2022/11/23 04:06:10;;;;;;;12.18;9.73;;;;;;;8.10;77.97;93256.78;4163254;28;20524;-55
2022/11/23 04:08:18;;;;;;;10.80;8.73;;;;;;;8.08;78.82;93274.41;4164829;28;20486;-58
2022/11/23 04:10:22;;;;;;;12.85;9.48;;;;;;;8.17;79.09;93268.13;4168817;28;20048;-56
2022/11/23 04:12:25;;;;;;;11.73;9.10;;;;;;;8.21;79.26;93266.75;4168920;28;20068;-58
2022/11/23 04:14:26;;;;;;;12.05;9.45;;;;;;;8.18;77.70;93258.50;4158097;28;20064;-56
2022/11/23 04:16:28;;;;;;;11.45;8.77;;;;;;;8.07;78.35;93257.16;4161890;28;20077;-57
2022/11/23 04:18:29;;;;;;;12.05;9.02;;;;;;;8.14;78.68;93260.66;4147526;28;20471;-54
2022/11/23 04:20:31;;;;;;;14.27;10.18;;;;;;;8.21;78.94;93269.38;4154696;28;20081;-57
2022/11/23 04:22:33;;;;;;;12.43;9.82;;;;;;;8.30;78.46;93271.91;4157126;28;20065;-58
2022/11/23 04:24:34;;;;;;;13.98;9.77;;;;;;;8.34;78.06;93275.75;4165224;28;20057;-57
2022/11/23 04:26:36;;;;;;;13.25;9.55;;;;;;;8.38;78.09;93271.81;4166118;28;20049;-57
2022/11/23 04:28:37;;;;;;;13.98;9.85;;;;;;;8.42;78.46;93270.50;4158314;28;20053;-56
2022/11/23 04:30:39;;;;;;;11.05;8.95;;;;;;;8.26;78.66;93262.81;4165988;28;20045;-56
2022/11/23 04:32:44;;;;;;;13.43;9.23;;;;;;;7.94;78.63;93256.97;4164742;28;20103;-52
2022/11/23 04:34:45;;;;;;;13.30;9.98;;;;;;;7.91;79.63;93260.72;4166772;28;20132;-57
2022/11/23 04:36:47;;;;;;;13.68;9.63;;;;;;;8.00;79.52;93272.72;4166449;28;20042;-55
2022/11/23 04:38:49;;;;;;;13.68;9.65;;;;;;;7.90;79.61;93269.53;4173006;28;20087;-55
2022/11/23 04:40:51;;;;;;;14.98;10.68;;;;;;;7.31;81.75;93270.22;4165937;28;20098;-57
2022/11/23 04:42:53;;;;;;;12.80;10.23;;;;;;;7.33;81.84;93272.63;4164926;28;20057;-57
2022/11/23 04:45:00;;;;;;;16.90;12.15;;;;;;;7.41;81.69;93276.97;4162912;28;20535;-53
2022/11/23 04:47:02;;;;;;;13.35;10.38;;;;;;;7.52;81.75;93297.41;4147234;28;20092;-54
2022/11/23 04:49:04;;;;;;;13.77;10.77;;;;;;;7.58;81.43;93299.31;4146556;28;20129;-57
2022/11/23 04:51:06;;;;;;;13.75;10.77;;;;;;;7.68;81.32;93297.28;4156457;28;20161;-54
2022/11/23 04:53:08;;;;;;;14.18;11.52;;;;;;;7.75;80.75;93300.78;4159608;28;20125;-56
2022/11/23 04:55:09;;;;;;;14.30;10.57;;;;;;;7.88;80.73;93296.78;4149950;28;20121;-56
2022/11/23 04:57:11;;;;;;;16.10;12.48;;;;;;;7.44;80.79;93271.41;4162708;28;20054;-55
2022/11/23 04:59:12;;;;;;;16.67;12.98;;;;;;;7.16;83.00;93287.53;4163109;28;20049;-58
2022/11/23 05:01:14;;;;;;;20.98;15.15;;;;;;;7.15;82.82;93291.94;4162407;28;20140;-55
2022/11/23 05:03:16;;;;;;;20.83;15.82;;;;;;;7.24;82.56;93304.94;4150180;28;20107;-56
2022/11/23 05:05:17;;;;;;;19.92;15.23;;;;;;;7.25;82.43;93317.78;4162588;28;20228;-54
2022/11/23 05:07:19;;;;;;;17.50;13.57;;;;;;;7.36;82.47;93321.78;4173044;28;20049;-59
2022/11/23 05:09:21;;;;;;;20.10;14.88;;;;;;;7.24;82.50;93299.72;4178217;28;20072;-60
2022/11/23 05:11:22;;;;;;;23.30;15.98;;;;;;;7.28;82.95;93301.81;4179276;28;20476;-59
2022/11/23 05:13:24;;;;;;;24.15;17.23;;;;;;;7.42;82.96;93302.03;4178360;28;20166;-58
2022/11/23 05:15:26;;;;;;;23.38;17.88;;;;;;;7.53;82.20;93297.22;4178725;28;20114;-57
2022/11/23 05:17:27;;;;;;;21.15;17.25;;;;;;;7.63;81.71;93304.78;4178013;28;20122;-55
2022/11/23 05:19:29;;;;;;;23.70;16.95;;;;;;;7.59;81.84;93312.16;4179277;28;20072;-55
2022/11/23 05:21:31;;;;;;;24.60;17.00;;;;;;;7.64;81.50;93316.84;4162619;28;20432;-52
2022/11/23 05:23:33;;;;;;;21.88;16.70;;;;;;;7.73;81.41;93301.97;4147622;28;20059;-55
2022/11/23 05:25:34;;;;;;;27.45;20.67;;;;;;;7.68;80.93;93288.63;4168824;28;20079;-58
2022/11/23 05:27:36;;;;;;;23.35;20.02;;;;;;;7.43;81.83;93301.06;4169363;28;20083;-56
2022/11/23 05:29:38;;;;;;;30.40;22.40;;;;;;;7.17;83.18;93274.34;4162764;28;20073;-56
2022/11/23 05:31:39;;;;;;;29.27;22.02;;;;;;;7.28;84.15;93283.56;4150788;28;20544;-55
2022/11/23 05:33:41;;;;;;;28.70;22.48;;;;;;;7.37;83.25;93295.53;4162594;28;20509;-58
2022/11/23 05:35:42;;;;;;;24.70;20.20;;;;;;;7.51;83.00;93286.16;4153947;28;20085;-59
2022/11/23 05:37:44;;;;;;;23.98;19.67;;;;;;;7.66;83.43;93281.00;4159115;28;20053;-57
2022/11/23 05:39:46;;;;;;;23.73;19.45;;;;;;;7.79;82.34;93288.22;4159705;28;20074;-58
2022/11/23 05:41:47;;;;;;;28.92;20.00;;;;;;;7.80;81.50;93280.22;4171340;28;20164;-59
2022/11/23 05:43:49;;;;;;;27.13;19.10;;;;;;;7.84;81.71;93278.06;4162042;28;20188;-55
2022/11/23 05:45:51;;;;;;;26.08;19.15;;;;;;;7.89;81.30;93287.97;4168425;28;20106;-56
2022/11/23 05:47:54;;;;;;;25.35;19.05;;;;;;;7.96;81.00;93286.28;4177159;28;20084;-56
2022/11/23 05:49:56;;;;;;;24.35;19.05;;;;;;;8.04;81.49;93295.81;4178222;28;20535;-53
2022/11/23 05:51:57;;;;;;;24.83;18.52;;;;;;;8.14;80.32;93293.75;4178731;28;20114;-57
2022/11/23 05:54:00;;;;;;;23.65;19.02;;;;;;;8.20;80.17;93295.66;4177370;28;20126;-57
2022/11/23 05:56:02;;;;;;;22.45;18.65;;;;;;;8.22;79.66;93288.47;4178160;28;20053;-56
2022/11/23 05:58:04;;;;;;;25.67;19.15;;;;;;;8.29;80.05;93284.13;4177420;28;20481;-59
2022/11/23 06:00:06;;;;;;;25.10;19.67;;;;;;;8.38;79.18;93284.84;4157268;28;20056;-58
2022/11/23 06:02:08;;;;;;;25.02;19.30;;;;;;;8.39;78.61;93276.84;4178286;28;20053;-56
2022/11/23 06:04:10;;;;;;;22.55;18.75;;;;;;;8.39;78.68;93273.44;4177910;28;20052;-57
2022/11/23 06:06:12;;;;;;;25.88;19.52;;;;;;;8.39;79.11;93278.66;4174296;28;20693;-54
2022/11/23 06:08:13;;;;;;;24.55;18.23;;;;;;;8.47;78.89;93283.00;4149586;28;20046;-57
2022/11/23 06:10:15;;;;;;;25.17;18.30;;;;;;;8.51;78.62;93289.47;4170361;28;20540;-57
2022/11/23 06:12:16;;;;;;;23.85;18.02;;;;;;;8.52;78.35;93294.53;4165836;28;20137;-57
2022/11/23 06:14:18;;;;;;;25.27;18.20;;;;;;;8.57;78.39;93291.38;4163224;28;20056;-56
2022/11/23 06:16:20;;;;;;;23.25;17.35;;;;;;;8.60;78.03;93304.88;4177974;28;20068;-54
2022/11/23 06:18:21;;;;;;;24.00;18.50;;;;;;;8.58;78.59;93311.25;4177351;28;20429;-60
2022/11/23 06:20:23;;;;;;;26.27;17.08;;;;;;;8.61;78.14;93290.00;4172685;28;20417;-59
2022/11/23 06:22:25;;;;;;;20.83;16.45;;;;;;;8.45;78.60;93316.28;4167041;28;20151;-57
2022/11/23 06:24:26;;;;;;;28.40;16.63;;;;;;;8.46;79.27;93318.72;4178446;28;20057;-57
2022/11/23 06:26:28;;;;;;;22.20;16.80;;;;;;;8.50;79.17;93304.34;4177746;28;20056;-58
2022/11/23 06:28:30;;;;;;;23.05;16.90;;;;;;;8.52;78.69;93318.00;4178905;28;20053;-54
2022/11/23 06:30:32;;;;;;;24.55;17.90;;;;;;;8.56;78.60;93328.88;4170888;28;20087;-64
2022/11/23 06:32:34;;;;;;;23.95;17.25;;;;;;;8.59;78.53;93315.50;4171746;28;20365;-57
2022/11/23 06:34:35;;;;;;;21.58;16.38;;;;;;;8.64;78.77;93313.13;4177162;28;20048;-56
2022/11/23 06:36:37;;;;;;;22.42;17.85;;;;;;;8.64;77.37;93323.56;4177867;28;20056;-59
2022/11/23 06:38:39;;;;;;;23.02;17.52;;;;;;;8.50;78.54;93319.19;4176925;28;20045;-56
2022/11/23 06:40:41;;;;;;;24.95;17.98;;;;;;;8.22;79.66;93314.56;4177505;28;20118;-57
2022/11/23 06:42:42;;;;;;;20.70;17.90;;;;;;;8.01;81.26;93325.66;4170993;28;20053;-57
2022/11/23 06:44:44;;;;;;;25.23;19.95;;;;;;;8.05;80.73;93315.69;4160978;28;20045;-54
2022/11/23 06:46:45;;;;;;;28.25;20.17;;;;;;;7.86;81.11;93309.19;4148328;28;20152;-55
2022/11/23 06:48:47;;;;;;;23.90;18.90;;;;;;;8.00;81.08;93339.69;4157218;28;20133;-56
2022/11/23 06:50:49;;;;;;;26.55;18.35;;;;;;;8.15;81.37;93316.22;4152851;28;20052;-56
2022/11/23 06:52:55;;;;;;;24.10;18.13;;;;;;;8.30;80.35;93308.41;4159459;28;20061;-58
2022/11/23 06:54:56;;;;;;;23.75;18.13;;;;;;;8.40;79.76;93303.75;4161287;28;20100;-55
2022/11/23 06:56:58;;;;;;;27.70;18.40;;;;;;;8.52;79.68;93315.41;4161279;28;20073;-58
2022/11/23 06:59:00;;;;;;;23.90;17.67;;;;;;;8.61;79.34;93322.16;4161582;28;20053;-58
2022/11/23 07:01:04;;;;;;;23.15;18.98;;;;;;;8.69;78.37;93292.53;4173735;28;20076;-56
2022/11/23 07:03:06;;;;;;;22.55;18.13;;;;;;;8.31;80.61;93316.06;4176555;28;20060;-58
2022/11/23 07:05:08;;;;;;;24.08;18.25;;;;;;;8.35;80.08;93326.97;4171114;28;20060;-55
2022/11/23 07:07:10;;;;;;;21.80;17.92;;;;;;;8.04;81.03;93294.00;4170856;28;20704;-56
2022/11/23 07:09:11;;;;;;;25.08;19.02;;;;;;;7.98;81.58;93315.59;4162677;28;20104;-58
2022/11/23 07:11:13;;;;;;;25.20;19.38;;;;;;;8.10;81.52;93323.78;4177243;28;20083;-57
2022/11/23 07:13:15;;;;;;;21.48;17.15;;;;;;;8.24;81.28;93303.91;4163461;28;20375;-56
2022/11/23 07:15:17;;;;;;;25.50;19.92;;;;;;;8.08;80.41;93304.91;4144875;28;20085;-57
2022/11/23 07:17:18;;;;;;;26.00;20.77;;;;;;;7.99;81.54;93304.16;4145842;28;20046;-57
2022/11/23 07:19:20;;;;;;;25.50;20.25;;;;;;;8.10;82.12;93326.41;4177333;28;20056;-55
2022/11/23 07:21:22;;;;;;;24.80;18.75;;;;;;;8.28;81.70;93326.06;4160597;28;20091;-57
2022/11/23 07:23:23;;;;;;;24.00;17.77;;;;;;;8.43;80.85;93339.94;4173650;28;20056;-58
2022/11/23 07:25:25;;;;;;;21.60;16.35;;;;;;;8.56;81.06;93341.94;4177121;28;20041;-55
2022/11/23 07:27:27;;;;;;;23.92;16.30;;;;;;;8.69;80.18;93318.66;4175685;28;20132;-55
2022/11/23 07:29:28;;;;;;;18.88;15.43;;;;;;;8.68;78.63;93330.06;4177448;28;20049;-59
2022/11/23 07:31:30;;;;;;;20.70;14.25;;;;;;;8.63;78.98;93329.00;4176454;28;20058;-55
2022/11/23 07:33:32;;;;;;;18.92;13.88;;;;;;;8.65;78.91;93314.78;4176526;28;20076;-59
2022/11/23 07:35:35;;;;;;;18.27;13.68;;;;;;;8.76;78.77;93324.75;4177127;28;20118;-59
2022/11/23 07:37:37;;;;;;;20.42;15.38;;;;;;;8.85;78.70;93328.06;4148667;28;20569;-58
2022/11/23 07:39:39;;;;;;;18.05;13.93;;;;;;;8.95;78.88;93333.81;4147293;28;20558;-57
2022/11/23 07:41:58;;;;;;;23.08;15.25;;;;;;;9.03;78.42;93330.28;4173798;28;20071;-58
2022/11/23 07:44:20;;;;;;;20.40;15.70;;;;;;;9.04;78.27;93318.06;4160847;28;20085;-54
2022/11/23 07:46:21;;;;;;;23.00;16.50;;;;;;;8.86;78.26;93324.44;4171037;28;20144;-54
2022/11/23 07:48:23;;;;;;;22.40;15.63;;;;;;;8.89;78.55;93339.78;4175365;28;20167;-53
2022/11/23 07:50:25;;;;;;;21.30;16.85;;;;;;;9.04;78.64;93323.28;4176369;28;20049;-51
2022/11/23 07:52:27;;;;;;;24.60;17.52;;;;;;;9.01;78.99;93319.22;4174616;28;20711;-55
2022/11/23 07:54:29;;;;;;;22.25;15.68;;;;;;;9.14;79.16;93342.91;4153958;28;20572;-58
2022/11/23 07:56:30;;;;;;;25.98;16.52;;;;;;;9.35;78.20;93323.00;4158896;28;20084;-58
2022/11/23 07:58:33;;;;;;;21.48;15.30;;;;;;;9.61;77.74;93322.47;4171067;28;20046;-58
2022/11/23 08:00:35;;;;;;;21.10;15.40;;;;;;;9.70;76.68;93316.13;4151456;28;20532;-56
2022/11/23 08:02:37;;;;;;;21.92;14.27;;;;;;;9.79;76.24;93304.53;4143103;28;20058;-54
2022/11/23 08:04:42;;;;;;;19.42;14.55;;;;;;;9.61;75.75;93306.78;4146882;28;20080;-55
2022/11/23 08:06:44;;;;;;;24.58;14.30;;;;;;;9.74;75.68;93327.81;4160474;28;20045;-58
2022/11/23 08:08:46;;;;;;;19.33;14.38;;;;;;;9.83;75.68;93324.09;4149722;28;20081;-57
2022/11/23 08:10:47;;;;;;;22.73;13.90;;;;;;;9.56;76.53;93304.72;4157257;28;20053;-57
2022/11/23 08:12:58;;;;;;;19.52;14.18;;;;;;;9.74;76.17;93306.09;4157746;28;20061;-56
2022/11/23 08:15:00;;;;;;;18.20;13.60;;;;;;;9.87;75.94;93308.00;4153000;28;20050;-57
2022/11/23 08:17:02;;;;;;;18.70;13.35;;;;;;;9.97;75.28;93298.84;4161300;28;20421;-56
2022/11/23 08:19:03;;;;;;;17.13;12.98;;;;;;;10.13;74.69;93310.84;4159276;28;20058;-57
2022/11/23 08:21:05;;;;;;;18.52;13.63;;;;;;;10.37;74.75;93311.44;4159043;28;20045;-55
2022/11/23 08:23:07;;;;;;;19.63;14.23;;;;;;;10.61;73.80;93308.34;4171460;28;20075;-56
2022/11/23 08:25:08;;;;;;;20.00;14.90;;;;;;;10.78;73.43;93308.03;4146321;28;20064;-56
2022/11/23 08:27:10;;;;;;;28.27;16.45;;;;;;;10.76;72.38;93310.03;4144255;28;20108;-58
2022/11/23 08:29:12;;;;;;;20.95;16.08;;;;;;;10.65;73.03;93301.72;4153653;28;20324;-57
2022/11/23 08:31:14;;;;;;;24.15;16.90;;;;;;;10.41;74.02;93300.38;4173144;28;20295;-57
2022/11/23 08:33:16;;;;;;;52.30;26.63;;;;;;;10.42;74.21;93294.13;4150412;28;20076;-60
2022/11/23 08:35:17;;;;;;;31.10;18.02;;;;;;;10.71;74.42;93307.19;4176628;28;20474;-58
2022/11/23 08:37:19;;;;;;;21.40;16.77;;;;;;;10.48;73.76;93289.94;4159364;28;20049;-59
2022/11/23 08:39:21;;;;;;;25.67;18.15;;;;;;;10.07;75.05;93305.53;4162536;28;20053;-59
2022/11/23 08:41:22;;;;;;;22.38;17.80;;;;;;;10.00;75.68;93305.47;4172696;28;20061;-57
2022/11/23 08:43:24;;;;;;;26.05;18.27;;;;;;;10.04;75.49;93310.19;4177412;28;20132;-57
2022/11/23 08:45:26;;;;;;;22.33;17.58;;;;;;;9.84;76.39;93301.34;4178983;28;20114;-58
2022/11/23 08:47:28;;;;;;;25.10;19.30;;;;;;;9.69;76.50;93301.41;4172646;28;20049;-55
2022/11/23 08:49:30;;;;;;;32.88;22.20;;;;;;;9.50;77.54;93318.53;4163375;28;20053;-52
2022/11/23 08:51:32;;;;;;;24.65;19.05;;;;;;;9.42;77.70;93310.81;4164626;28;20054;-56
2022/11/23 08:53:33;;;;;;;27.55;19.35;;;;;;;9.51;77.66;93296.63;4177925;28;20095;-56
2022/11/23 08:55:35;;;;;;;24.45;19.52;;;;;;;9.76;77.74;93314.53;4164416;28;20513;-58
2022/11/23 08:57:37;;;;;;;25.58;19.05;;;;;;;10.06;77.38;93309.97;4162915;28;20049;-56
2022/11/23 08:59:38;;;;;;;23.08;18.38;;;;;;;10.41;76.91;93316.09;4162780;28;20128;-55
2022/11/23 09:01:40;;;;;;;23.65;19.13;;;;;;;10.60;74.38;93304.13;4159234;28;20355;-55
2022/11/23 09:03:43;;;;;;;22.17;16.85;;;;;;;10.84;74.19;93317.72;4154314;28;20132;-57
2022/11/23 09:05:44;;;;;;;22.40;17.85;;;;;;;11.08;73.99;93313.81;4152010;28;20109;-56
2022/11/23 09:07:46;;;;;;;27.20;18.55;;;;;;;11.28;73.61;93306.81;4172627;28;20505;-59
2022/11/23 09:09:48;;;;;;;25.25;18.00;;;;;;;11.55;72.64;93308.69;4168261;28;20127;-56
2022/11/23 09:11:51;;;;;;;19.77;16.60;;;;;;;11.75;71.56;93301.66;4179310;28;20509;-58
2022/11/23 09:13:53;;;;;;;25.87;17.87;;;;;;;11.93;71.00;93300.31;4178842;28;20049;-59
2022/11/23 09:15:58;;;;;;;20.13;16.80;;;;;;;12.01;70.26;93285.16;4176374;28;20084;-56
2022/11/23 09:18:00;;;;;;;21.27;16.73;;;;;;;12.12;70.03;93282.94;4168476;28;20092;-56
2022/11/23 09:20:02;;;;;;;22.50;16.60;;;;;;;12.24;69.82;93282.13;4161204;28;20470;-56
2022/11/23 09:22:04;;;;;;;21.48;15.65;;;;;;;12.37;69.43;93286.56;4162391;28;20148;-55
2022/11/23 09:24:05;;;;;;;21.58;15.75;;;;;;;12.48;68.28;93285.13;4161116;28;20081;-55
2022/11/23 09:26:09;;;;;;;20.38;15.57;;;;;;;12.62;68.24;93289.31;4162758;28;20058;-58
2022/11/23 09:28:11;;;;;;;20.25;15.93;;;;;;;12.72;68.45;93288.91;4149507;28;20204;-58
2022/11/23 09:30:13;;;;;;;18.58;15.90;;;;;;;12.79;67.54;93287.03;4162794;28;20466;-54
2022/11/23 09:32:15;;;;;;;22.75;16.73;;;;;;;12.84;67.53;93281.16;4162144;28;20123;-56